Time;durP1;ratioP1;P1;durP2;ratioP2;P2;SDS_P1;SDS_P2;PMS_P1;PMS_P2;Temp;Humidity;BMP_temperature;BMP_pressure;BME280_temperature;BME280_humidity;BME280_pressure;Samples;Min_cycle;Max_cycle;Signal;HPM_P1;HPM_P2
2021/05/22 00:01:03;;;;;;;4.93;1.50;;;;;;;-145.50;100.00;65435.88;4988362;28;20383;-73
2021/05/22 00:03:51;;;;;;;6.07;1.50;;;;;;;-145.50;100.00;65435.88;4991479;28;20131;-73
2021/05/22 00:06:38;;;;;;;11.30;1.75;;;;;;;-145.50;100.00;65435.88;4983788;28;20085;-73
2021/05/22 00:09:26;;;;;;;5.55;1.25;;;;;;;-145.50;100.00;65435.88;4990953;28;20484;-73
2021/05/22 00:12:13;;;;;;;6.40;1.35;;;;;;;-145.50;100.00;65435.88;4992254;28;20588;-73
2021/05/22 00:15:01;;;;;;;6.63;1.45;;;;;;;-145.50;100.00;65435.88;4989862;28;20303;-77
2021/05/22 00:17:49;;;;;;;6.55;1.58;;;;;;;-145.50;100.00;65435.88;4996083;28;20049;-72
2021/05/22 00:20:36;;;;;;;9.50;1.50;;;;;;;-145.50;100.00;65435.88;4993817;28;20123;-73
2021/05/22 00:23:24;;;;;;;9.40;1.65;;;;;;;-145.50;100.00;65435.88;4989920;28;20097;-73
2021/05/22 00:26:11;;;;;;;5.50;1.67;;;;;;;-145.50;100.00;65435.88;4987276;28;20054;-73
2021/05/22 00:28:58;;;;;;;5.32;1.17;;;;;;;-145.50;100.00;65435.88;4995354;28;20049;-73
2021/05/22 00:31:45;;;;;;;4.18;1.30;;;;;;;-145.50;100.00;65435.88;4985410;28;20063;-73
2021/05/22 00:34:32;;;;;;;9.00;1.65;;;;;;;-145.50;100.00;65435.88;4991623;28;20264;-73
2021/05/22 00:37:19;;;;;;;6.13;1.70;;;;;;;-145.50;100.00;65435.88;4985212;28;20132;-73
2021/05/22 00:40:07;;;;;;;10.55;1.40;;;;;;;-145.50;100.00;65435.88;4998507;28;20081;-73
2021/05/22 00:42:55;;;;;;;8.68;1.55;;;;;;;-145.50;100.00;65435.88;4985013;28;20707;-73
2021/05/22 00:45:44;;;;;;;10.73;1.80;;;;;;;-145.50;100.00;65435.88;4995418;28;20563;-73
2021/05/22 00:48:31;;;;;;;10.77;1.77;;;;;;;-145.50;100.00;65435.88;4981972;28;20196;-73
2021/05/22 00:51:18;;;;;;;8.85;2.05;;;;;;;-145.50;100.00;65435.88;4990510;28;20089;-74
2021/05/22 00:54:05;;;;;;;6.28;1.02;;;;;;;-145.50;100.00;65435.88;4990058;28;20083;-74
2021/05/22 00:56:52;;;;;;;9.63;1.83;;;;;;;-145.50;100.00;65435.88;4993080;28;20093;-74
2021/05/22 00:59:39;;;;;;;8.70;1.42;;;;;;;-145.50;100.00;65435.88;4993032;28;20085;-73
2021/05/22 01:02:27;;;;;;;6.95;1.50;;;;;;;-145.50;100.00;65435.88;4995279;28;20050;-73
2021/05/22 01:05:15;;;;;;;7.97;1.67;;;;;;;-145.50;100.00;65435.88;4987907;28;20496;-73
2021/05/22 01:08:12;;;;;;;8.90;1.20;;;;;;;-145.50;100.00;65435.88;4997736;28;20701;-73
2021/05/22 01:11:03;;;;;;;9.55;1.40;;;;;;;-145.50;100.00;65435.88;4989346;28;20143;-73
2021/05/22 01:13:58;;;;;;;7.25;1.48;;;;;;;-145.50;100.00;65435.88;5001340;28;20134;-72
2021/05/22 01:16:46;;;;;;;11.35;2.22;;;;;;;-145.50;100.00;65435.88;4985582;28;20050;-73
2021/05/22 01:19:41;;;;;;;3.70;1.35;;;;;;;-145.50;100.00;65435.88;4994517;28;20560;-73
2021/05/22 01:22:34;;;;;;;3.03;0.82;;;;;;;-145.50;100.00;65435.88;4988691;28;20085;-73
2021/05/22 01:25:31;;;;;;;5.35;1.33;;;;;;;-145.50;100.00;65435.88;4996081;28;20485;-73
2021/05/22 01:28:19;;;;;;;9.05;1.70;;;;;;;-145.50;100.00;65435.88;4988542;28;20057;-73
2021/05/22 01:31:08;;;;;;;8.63;1.55;;;;;;;-145.50;100.00;65435.88;4987273;28;20160;-74
2021/05/22 01:33:55;;;;;;;;;;;;;;;-145.50;100.00;65435.88;4988145;28;20045;-74
2021/05/22 01:36:42;;;;;;;6.43;1.17;;;;;;;-145.50;100.00;65435.88;5000772;28;20027;-73
2021/05/22 01:39:29;;;;;;;5.88;1.23;;;;;;;-145.50;100.00;65435.88;4988297;28;20104;-74
2021/05/22 01:42:16;;;;;;;9.65;1.85;;;;;;;-145.50;100.00;65435.88;4998106;28;20111;-73
2021/05/22 01:45:09;;;;;;;10.73;1.65;;;;;;;-145.50;100.00;65435.88;4980072;28;20077;-74
2021/05/22 01:47:57;;;;;;;5.35;1.50;;;;;;;-145.50;100.00;65435.88;4994487;28;20116;-74
2021/05/22 01:50:50;;;;;;;6.95;1.17;;;;;;;-145.50;100.00;65435.88;4992670;28;20096;-73
2021/05/22 01:53:39;;;;;;;6.03;1.60;;;;;;;-145.50;100.00;65435.88;4999872;28;20514;-74
2021/05/22 01:56:27;;;;;;;9.13;1.80;;;;;;;-145.50;100.00;65435.88;4990487;28;20134;-73
2021/05/22 01:59:14;;;;;;;7.83;1.20;;;;;;;-145.50;100.00;65435.88;4986428;28;20819;-73
2021/05/22 02:02:01;;;;;;;6.17;1.37;;;;;;;-145.50;100.00;65435.88;4990138;28;20269;-73
2021/05/22 02:04:50;;;;;;;11.05;1.65;;;;;;;-145.50;100.00;65435.88;4994018;28;20077;-74
2021/05/22 02:07:37;;;;;;;;;;;;;;;-145.50;100.00;65435.88;4997933;28;20132;-73
2021/05/22 02:10:25;;;;;;;4.53;1.40;;;;;;;-145.50;100.00;65435.88;4990386;28;20364;-73
2021/05/22 02:13:17;;;;;;;8.57;1.60;;;;;;;-145.50;100.00;65435.88;4991179;28;20086;-73
2021/05/22 02:16:11;;;;;;;10.10;1.60;;;;;;;-145.50;100.00;65435.88;4986083;28;20081;-73
2021/05/22 02:18:59;;;;;;;9.02;1.27;;;;;;;-145.50;100.00;65435.88;4999299;28;20589;-73
2021/05/22 02:21:49;;;;;;;3.30;1.13;;;;;;;-145.50;100.00;65435.88;4988168;28;20086;-73
2021/05/22 02:24:38;;;;;;;9.63;1.40;;;;;;;-145.50;100.00;65435.88;4995964;28;20133;-73
2021/05/22 02:27:26;;;;;;;6.25;1.20;;;;;;;-145.50;100.00;65435.88;4984222;28;20208;-73
2021/05/22 02:30:14;;;;;;;3.00;0.90;;;;;;;-145.50;100.00;65435.88;4994866;28;20105;-73
2021/05/22 02:33:02;;;;;;;;;;;;;;;-145.50;100.00;65435.88;4989072;28;20627;-73
2021/05/22 02:35:52;;;;;;;2.90;1.02;;;;;;;-145.50;100.00;65435.88;4996540;28;19925;-74
2021/05/22 02:38:43;;;;;;;5.55;1.48;;;;;;;-145.50;100.00;65435.88;4989144;28;20139;-73
2021/05/22 02:41:31;;;;;;;5.65;0.95;;;;;;;-145.50;100.00;65435.88;4986876;28;20489;-73
2021/05/22 02:44:20;;;;;;;6.40;1.00;;;;;;;-145.50;100.00;65435.88;4990619;28;20057;-73
2021/05/22 02:47:09;;;;;;;5.47;1.00;;;;;;;-145.50;100.00;65435.88;4992090;28;20443;-73
2021/05/22 02:50:01;;;;;;;8.95;1.30;;;;;;;-145.50;100.00;65435.88;4987843;28;20137;-73
2021/05/22 02:52:48;;;;;;;5.32;1.40;;;;;;;-145.50;100.00;65435.88;4994409;28;20089;-73
2021/05/22 02:55:37;;;;;;;4.33;1.03;;;;;;;-145.50;100.00;65435.88;4980079;28;20133;-73
2021/05/22 02:58:24;;;;;;;;;;;;;;;-145.50;100.00;65435.88;4999254;28;20069;-73
2021/05/22 03:01:12;;;;;;;6.87;1.37;;;;;;;-145.50;100.00;65435.88;4988230;28;20357;-73
2021/05/22 03:04:00;;;;;;;3.13;1.10;;;;;;;-145.50;100.00;65435.88;4994286;28;20054;-73
2021/05/22 03:06:47;;;;;;;3.88;1.08;;;;;;;-145.50;100.00;65435.88;4985892;28;20827;-73
2021/05/22 03:09:35;;;;;;;5.25;1.40;;;;;;;-145.50;100.00;65435.88;4991588;28;20358;-74
2021/05/22 03:12:24;;;;;;;5.10;1.27;;;;;;;-145.50;100.00;65435.88;4989658;28;20092;-73
2021/05/22 03:15:13;;;;;;;6.65;1.10;;;;;;;-145.50;100.00;65435.88;4995482;28;20596;-74
2021/05/22 03:18:00;;;;;;;2.42;1.00;;;;;;;-145.50;100.00;65435.88;4987309;28;20108;-73
2021/05/22 03:20:47;;;;;;;4.82;0.90;;;;;;;-145.50;100.00;65435.88;4990836;28;20081;-73
2021/05/22 03:23:34;;;;;;;5.70;1.00;;;;;;;-145.50;100.00;65435.88;4983225;28;20061;-73
2021/05/22 03:26:22;;;;;;;6.07;1.33;;;;;;;-145.50;100.00;65435.88;4996453;28;20144;-73
2021/05/22 03:29:09;;;;;;;7.15;1.17;;;;;;;-145.50;100.00;65435.88;4985699;28;20558;-73
2021/05/22 03:31:56;;;;;;;8.82;1.20;;;;;;;-145.50;100.00;65435.88;4991777;28;20054;-74
2021/05/22 03:34:43;;;;;;;8.45;1.85;;;;;;;-145.50;100.00;65435.88;4992346;28;20560;-74
2021/05/22 03:37:30;;;;;;;5.35;1.30;;;;;;;-145.50;100.00;65435.88;4991193;28;20050;-73
2021/05/22 03:40:17;;;;;;;3.85;1.15;;;;;;;-145.50;100.00;65435.88;4993681;28;20169;-74
2021/05/22 03:43:04;;;;;;;8.68;1.23;;;;;;;-145.50;100.00;65435.88;4991219;28;20534;-73
2021/05/22 03:45:52;;;;;;;9.77;1.23;;;;;;;-145.50;100.00;65435.88;4989846;28;20054;-74
2021/05/22 03:48:39;;;;;;;6.65;1.50;;;;;;;-145.50;100.00;65435.88;4983508;28;20346;-74
2021/05/22 03:51:26;;;;;;;6.05;1.40;;;;;;;-145.50;100.00;65435.88;4990643;28;20464;-74
2021/05/22 03:54:13;;;;;;;5.05;1.70;;;;;;;-145.50;100.00;65435.88;4988309;28;20088;-74
2021/05/22 03:57:00;;;;;;;3.75;1.27;;;;;;;-145.50;100.00;65435.88;4995263;28;20053;-74
2021/05/22 03:59:47;;;;;;;10.93;1.75;;;;;;;-145.50;100.00;65435.88;4985053;28;20412;-74
2021/05/22 04:02:35;;;;;;;5.72;1.13;;;;;;;-145.50;100.00;65435.88;4992516;28;20280;-74
2021/05/22 04:05:23;;;;;;;7.72;1.45;;;;;;;-145.50;100.00;65435.88;4980632;28;20076;-74
2021/05/22 04:08:11;;;;;;;5.95;1.25;;;;;;;-145.50;100.00;65435.88;4998826;28;20077;-74
2021/05/22 04:10:59;;;;;;;5.68;1.80;;;;;;;-145.50;100.00;65435.88;4986166;28;20164;-74
2021/05/22 04:13:46;;;;;;;6.70;1.40;;;;;;;-145.50;100.00;65435.88;4995723;28;20488;-74
2021/05/22 04:16:33;;;;;;;7.20;1.50;;;;;;;-145.50;100.00;65435.88;4983224;28;20057;-74
2021/05/22 04:19:20;;;;;;;4.90;1.17;;;;;;;-145.50;100.00;65435.88;4988131;28;20129;-74
2021/05/22 04:22:07;;;;;;;5.03;1.27;;;;;;;-145.50;100.00;65435.88;4986484;28;20050;-74
2021/05/22 04:24:54;;;;;;;12.05;1.42;;;;;;;-145.50;100.00;65435.88;4989811;28;20137;-74
2021/05/22 04:27:41;;;;;;;6.68;1.65;;;;;;;-145.50;100.00;65435.88;4989780;28;20076;-74
2021/05/22 04:30:29;;;;;;;7.22;1.92;;;;;;;-145.50;100.00;65435.88;4987998;28;20864;-74
2021/05/22 04:33:16;;;;;;;7.03;1.80;;;;;;;-145.50;100.00;65435.88;4978889;28;20089;-74
2021/05/22 04:36:03;;;;;;;11.13;1.70;;;;;;;-145.50;100.00;65435.88;4997974;28;20081;-74
2021/05/22 04:38:52;;;;;;;7.70;1.73;;;;;;;-145.50;100.00;65435.88;4990443;28;20101;-74
2021/05/22 04:41:39;;;;;;;7.43;1.42;;;;;;;-145.50;100.00;65435.88;5013406;28;20434;-74
2021/05/22 04:44:27;;;;;;;6.18;1.40;;;;;;;-145.50;100.00;65435.88;4987842;28;20130;-74
2021/05/22 04:47:13;;;;;;;7.97;1.48;;;;;;;-145.50;100.00;65435.88;4993047;28;20173;-74
2021/05/22 04:50:01;;;;;;;6.03;1.40;;;;;;;-145.50;100.00;65435.88;4993392;28;20580;-74
2021/05/22 04:52:49;;;;;;;6.93;1.25;;;;;;;-145.50;100.00;65435.88;4999110;28;20103;-74
2021/05/22 04:55:36;;;;;;;6.10;1.25;;;;;;;-145.50;100.00;65435.88;4995415;28;20418;-74
2021/05/22 04:58:24;;;;;;;5.35;1.45;;;;;;;-145.50;100.00;65435.88;4992152;28;20054;-74
2021/05/22 05:01:11;;;;;;;7.60;1.85;;;;;;;-145.50;100.00;65435.88;4998978;28;20078;-74
2021/05/22 05:03:58;;;;;;;7.95;1.50;;;;;;;-145.50;100.00;65435.88;4987520;28;20177;-75
2021/05/22 05:06:46;;;;;;;10.80;1.58;;;;;;;-145.50;100.00;65435.88;4993028;28;20112;-74
2021/05/22 05:09:34;;;;;;;11.45;2.08;;;;;;;-145.50;100.00;65435.88;4988617;28;20485;-74
2021/05/22 05:12:22;;;;;;;7.20;1.60;;;;;;;-145.50;100.00;65435.88;4999490;28;20613;-74
2021/05/22 05:15:09;;;;;;;6.13;1.50;;;;;;;-145.50;100.00;65435.88;4988084;28;20085;-74
2021/05/22 05:17:56;;;;;;;5.57;1.70;;;;;;;-145.50;100.00;65435.88;4987774;28;20058;-74
2021/05/22 05:20:43;;;;;;;10.05;2.40;;;;;;;-145.50;100.00;65435.88;4986848;28;20080;-74
2021/05/22 05:23:30;;;;;;;9.05;1.58;;;;;;;-145.50;100.00;65435.88;4997528;28;20482;-75
2021/05/22 05:26:17;;;;;;;8.40;1.55;;;;;;;-145.50;100.00;65435.88;4991753;28;20518;-74
2021/05/22 05:29:04;;;;;;;9.15;1.73;;;;;;;-145.50;100.00;65435.88;4993310;28;20056;-75
2021/05/22 05:31:51;;;;;;;6.10;1.23;;;;;;;-145.50;100.00;65435.88;4980718;28;20296;-74
2021/05/22 05:34:41;;;;;;;12.75;1.70;;;;;;;-145.50;100.00;65435.88;4995157;28;20100;-75
2021/05/22 05:37:28;;;;;;;9.88;1.42;;;;;;;-145.50;100.00;65435.88;4990722;28;20062;-75
2021/05/22 05:40:19;;;;;;;8.63;1.60;;;;;;;-145.50;100.00;65435.88;4996192;28;20472;-75
2021/05/22 05:43:10;;;;;;;6.78;1.80;;;;;;;-145.50;100.00;65435.88;5005226;28;20046;-75
2021/05/22 05:45:58;;;;;;;5.70;1.50;;;;;;;-145.50;100.00;65435.88;4988827;28;20509;-75
2021/05/22 05:48:45;;;;;;;8.25;1.70;;;;;;;-145.50;100.00;65435.88;4985960;28;20046;-75
2021/05/22 05:51:32;;;;;;;5.75;1.42;;;;;;;-145.50;100.00;65435.88;5001313;28;20104;-75
2021/05/22 05:54:19;;;;;;;8.45;1.70;;;;;;;-145.50;100.00;65435.88;4990363;28;20104;-74
2021/05/22 05:57:06;;;;;;;8.05;1.58;;;;;;;-145.50;100.00;65435.88;4994370;28;20498;-75
2021/05/22 05:59:53;;;;;;;10.00;1.75;;;;;;;-145.50;100.00;65435.88;4980189;28;20049;-74
2021/05/22 06:02:40;;;;;;;7.45;1.95;;;;;;;-145.50;100.00;65435.88;4989316;28;20112;-74
2021/05/22 06:05:28;;;;;;;12.25;1.67;;;;;;;-145.50;100.00;65435.88;4996724;28;20060;-74
2021/05/22 06:08:15;;;;;;;7.27;1.67;;;;;;;-145.50;100.00;65435.88;4997622;28;20172;-74
2021/05/22 06:11:03;;;;;;;10.57;1.70;;;;;;;-145.50;100.00;65435.88;4999205;28;20664;-74
2021/05/22 06:13:52;;;;;;;9.55;1.95;;;;;;;-145.50;100.00;65435.88;4981777;28;20275;-74
2021/05/22 06:16:39;;;;;;;8.60;1.88;;;;;;;-145.50;100.00;65435.88;5000915;28;20149;-74
2021/05/22 06:19:26;;;;;;;8.85;2.00;;;;;;;-145.50;100.00;65435.88;4983831;28;20143;-74
2021/05/22 06:22:13;;;;;;;8.63;1.88;;;;;;;-145.50;100.00;65435.88;5000108;28;20135;-74
2021/05/22 06:25:00;;;;;;;11.07;2.13;;;;;;;-145.50;100.00;65435.88;4987530;28;20584;-74
2021/05/22 06:27:47;;;;;;;8.40;1.80;;;;;;;-145.50;100.00;65435.88;4987000;28;20141;-74
2021/05/22 06:30:35;;;;;;;10.80;1.67;;;;;;;-145.50;100.00;65435.88;4986306;28;20553;-74
2021/05/22 06:33:22;;;;;;;6.50;1.45;;;;;;;-145.50;100.00;65435.88;4994426;28;20084;-74
2021/05/22 06:36:11;;;;;;;9.15;1.85;;;;;;;-145.50;100.00;65435.88;4994182;28;20053;-75
2021/05/22 06:38:58;;;;;;;8.70;1.75;;;;;;;-145.50;100.00;65435.88;4985169;28;20135;-75
2021/05/22 06:41:46;;;;;;;7.28;1.52;;;;;;;-145.50;100.00;65435.88;5002530;28;20402;-75
2021/05/22 06:44:43;;;;;;;8.68;1.83;;;;;;;-145.50;100.00;65435.88;4996551;28;20457;-74
2021/05/22 06:47:30;;;;;;;8.93;1.87;;;;;;;-145.50;100.00;65435.88;4987849;28;20049;-76
2021/05/22 06:50:18;;;;;;;7.93;1.70;;;;;;;-145.50;100.00;65435.88;4997914;28;20314;-75
2021/05/22 06:53:06;;;;;;;4.75;1.52;;;;;;;-145.50;100.00;65435.88;4983890;28;20165;-74
2021/05/22 06:55:53;;;;;;;7.45;1.60;;;;;;;-145.50;100.00;65435.88;4991804;28;20128;-75
2021/05/22 06:58:40;;;;;;;3.63;1.80;;;;;;;-145.50;100.00;65435.88;5006485;28;20406;-74
2021/05/22 07:01:28;;;;;;;4.53;1.48;;;;;;;-145.50;100.00;65435.88;4999484;28;20370;-74
2021/05/22 07:04:15;;;;;;;8.15;2.00;;;;;;;-145.50;100.00;65435.88;4987016;28;20058;-74
2021/05/22 07:07:02;;;;;;;10.38;1.85;;;;;;;-145.50;100.00;65435.88;4990820;28;20439;-74
2021/05/22 07:09:49;;;;;;;5.90;1.60;;;;;;;-145.50;100.00;65435.88;4984983;28;20052;-74
2021/05/22 07:12:37;;;;;;;7.63;1.70;;;;;;;-145.50;100.00;65435.88;4996213;28;20108;-75
2021/05/22 07:15:25;;;;;;;10.52;2.03;;;;;;;-145.50;100.00;65435.88;4992112;28;20050;-77
2021/05/22 07:18:12;;;;;;;7.65;1.92;;;;;;;-145.50;100.00;65435.88;4993638;28;20395;-74
2021/05/22 07:20:59;;;;;;;6.03;1.95;;;;;;;-145.50;100.00;65435.88;4992816;28;20087;-74
2021/05/22 07:23:46;;;;;;;8.90;2.22;;;;;;;-145.50;100.00;65435.88;4993228;28;20061;-74
2021/05/22 07:26:33;;;;;;;11.15;1.67;;;;;;;-145.50;100.00;65435.88;5015712;28;20084;-75
2021/05/22 07:29:21;;;;;;;7.30;1.60;;;;;;;-145.50;100.00;65435.88;4995089;28;20583;-74
2021/05/22 07:32:08;;;;;;;6.80;1.77;;;;;;;-145.50;100.00;65435.88;4996729;28;20108;-74
2021/05/22 07:34:55;;;;;;;7.90;2.15;;;;;;;-145.50;100.00;65435.88;4981724;28;20085;-74
2021/05/22 07:37:42;;;;;;;7.10;1.60;;;;;;;-145.50;100.00;65435.88;4994298;28;20049;-74
2021/05/22 07:40:31;;;;;;;8.30;1.48;;;;;;;-145.50;100.00;65435.88;4990433;28;20084;-74
2021/05/22 07:43:19;;;;;;;6.60;1.65;;;;;;;-145.50;100.00;65435.88;4994527;28;20062;-74
2021/05/22 07:46:06;;;;;;;;;;;;;;;-145.50;100.00;65435.88;4991704;28;20045;-74
2021/05/22 07:48:54;;;;;;;7.22;1.77;;;;;;;-145.50;100.00;65435.88;4989717;28;20024;-74
2021/05/22 07:51:42;;;;;;;8.68;1.98;;;;;;;-145.50;100.00;65435.88;4989734;28;20552;-74
2021/05/22 07:54:29;;;;;;;8.73;2.22;;;;;;;-145.50;100.00;65435.88;4995454;28;20076;-75
2021/05/22 07:57:16;;;;;;;13.15;2.22;;;;;;;-145.50;100.00;65435.88;4988865;28;20054;-74
2021/05/22 08:00:05;;;;;;;4.25;1.60;;;;;;;-145.50;100.00;65435.88;4990073;28;20136;-74
2021/05/22 08:02:52;;;;;;;5.05;1.85;;;;;;;-145.50;100.00;65435.88;4984557;28;20150;-74
2021/05/22 08:05:39;;;;;;;3.95;1.45;;;;;;;-145.50;100.00;65435.88;4998641;28;20146;-74
2021/05/22 08:08:26;;;;;;;4.43;1.77;;;;;;;-145.50;100.00;65435.88;4987409;28;20120;-74
2021/05/22 08:11:13;;;;;;;6.82;1.90;;;;;;;-145.50;100.00;65435.88;5004653;28;20479;-74
2021/05/22 08:14:01;;;;;;;7.72;1.70;;;;;;;-145.50;100.00;65435.88;4982965;28;20521;-75
2021/05/22 08:16:48;;;;;;;5.32;1.88;;;;;;;-145.50;100.00;65435.88;4993193;28;20486;-74
2021/05/22 08:19:35;;;;;;;5.15;1.75;;;;;;;-145.50;100.00;65435.88;4995044;28;20153;-74
2021/05/22 08:22:22;;;;;;;6.93;1.70;;;;;;;-145.50;100.00;65435.88;5001709;28;20666;-75
2021/05/22 08:25:09;;;;;;;5.68;2.30;;;;;;;-145.50;100.00;65435.88;4998359;28;20417;-74
2021/05/22 08:27:57;;;;;;;3.58;1.65;;;;;;;-145.50;100.00;65435.88;4991238;28;20807;-74
2021/05/22 08:30:44;;;;;;;4.63;1.52;;;;;;;-145.50;100.00;65435.88;4994783;28;20453;-74
2021/05/22 08:33:31;;;;;;;5.95;2.10;;;;;;;-145.50;100.00;65435.88;4997656;28;20585;-75
2021/05/22 08:36:18;;;;;;;3.53;1.60;;;;;;;-145.50;100.00;65435.88;5006252;28;20136;-75
2021/05/22 08:39:06;;;;;;;5.00;1.77;;;;;;;-145.50;100.00;65435.88;5000532;28;20053;-75
2021/05/22 08:41:54;;;;;;;4.53;1.92;;;;;;;-145.50;100.00;65435.88;4997142;28;20077;-75
2021/05/22 08:44:42;;;;;;;4.32;1.85;;;;;;;-145.50;100.00;65435.88;4995897;28;20124;-74
2021/05/22 08:47:30;;;;;;;4.10;1.65;;;;;;;-145.50;100.00;65435.88;4997094;28;20082;-75
2021/05/22 08:50:19;;;;;;;3.92;1.73;;;;;;;-145.50;100.00;65435.88;4996035;28;20163;-75
2021/05/22 08:53:06;;;;;;;7.57;2.17;;;;;;;-145.50;100.00;65435.88;4996545;28;20123;-74
2021/05/22 08:55:53;;;;;;;4.50;1.50;;;;;;;-145.50;100.00;65435.88;4986591;28;20108;-75
2021/05/22 08:58:40;;;;;;;5.45;2.00;;;;;;;-145.50;100.00;65435.88;4998284;28;20100;-75
2021/05/22 09:01:27;;;;;;;6.00;2.53;;;;;;;-145.50;100.00;65435.88;4994217;28;20050;-74
2021/05/22 09:04:17;;;;;;;3.92;1.60;;;;;;;-145.50;100.00;65435.88;5005803;28;20054;-74
2021/05/22 09:07:22;;;;;;;6.25;2.13;;;;;;;-145.50;100.00;65435.88;4998410;28;20092;-73
2021/05/22 09:10:11;;;;;;;8.00;3.03;;;;;;;-145.50;100.00;65435.88;4999755;28;20763;-74
2021/05/22 09:13:03;;;;;;;7.68;2.80;;;;;;;-145.50;100.00;65435.88;4991920;28;20816;-73
2021/05/22 09:15:41;;;;;;;6.00;2.15;;;;;;;-145.50;100.00;65435.88;5004692;28;20052;-74
2021/05/22 09:18:18;;;;;;;5.47;2.00;;;;;;;-145.50;100.00;65435.88;4991205;28;20050;-73
2021/05/22 09:20:57;;;;;;;5.30;2.53;;;;;;;-145.50;100.00;65435.88;5002452;28;20145;-74
2021/05/22 09:23:26;;;;;;;8.18;2.08;;;;;;;-145.50;100.00;65435.88;4981666;28;20086;-74
2021/05/22 09:25:57;;;;;;;;;;;;;;;-145.50;100.00;65435.88;4991077;28;20104;-74
2021/05/22 09:28:26;;;;;;;6.78;2.30;;;;;;;-145.50;100.00;65435.88;4988081;28;19992;-73
2021/05/22 09:30:53;;;;;;;7.65;2.45;;;;;;;-145.50;100.00;65435.88;4995892;28;20057;-74
2021/05/22 09:33:22;;;;;;;6.33;3.03;;;;;;;-145.50;100.00;65435.88;4996895;28;20058;-75
2021/05/22 09:35:52;;;;;;;6.95;2.67;;;;;;;-145.50;100.00;65435.88;4986121;28;20438;-75
2021/05/22 09:38:35;;;;;;;8.25;3.55;;;;;;;-145.50;100.00;65435.88;4990152;28;20189;-75
2021/05/22 09:41:20;;;;;;;7.03;2.85;;;;;;;-145.50;100.00;65435.88;5009065;28;20054;-74
2021/05/22 09:44:13;;;;;;;4.00;2.60;;;;;;;-145.50;100.00;65435.88;4998394;28;20104;-74
2021/05/22 09:46:45;;;;;;;5.85;2.92;;;;;;;-145.50;100.00;65435.88;4989495;28;20081;-74
2021/05/22 09:49:35;;;;;;;4.63;2.70;;;;;;;-145.50;100.00;65435.88;4996823;28;20139;-74
2021/05/22 09:52:10;;;;;;;6.80;3.20;;;;;;;-145.50;100.00;65435.88;4987354;28;20088;-74
2021/05/22 09:54:46;;;;;;;5.55;2.70;;;;;;;-145.50;100.00;65435.88;4998412;28;20113;-74
2021/05/22 09:57:31;;;;;;;6.45;2.65;;;;;;;-145.50;100.00;65435.88;4986609;28;20140;-74
2021/05/22 10:00:07;;;;;;;6.07;3.10;;;;;;;-145.50;100.00;65435.88;4998140;28;20058;-74
2021/05/22 10:03:01;;;;;;;6.13;2.75;;;;;;;-145.50;100.00;65435.88;4986272;28;20127;-73
2021/05/22 10:05:32;;;;;;;5.45;2.55;;;;;;;-145.50;100.00;65435.88;5006826;28;20154;-73
2021/05/22 10:08:04;;;;;;;5.15;2.58;;;;;;;-145.50;100.00;65435.88;4996511;28;20081;-73
2021/05/22 10:10:41;;;;;;;9.73;2.83;;;;;;;-145.50;100.00;65435.88;4988020;28;20490;-73
2021/05/22 10:13:09;;;;;;;5.65;2.90;;;;;;;-145.50;100.00;65435.88;4994634;28;20493;-73
2021/05/22 10:15:36;;;;;;;4.97;2.35;;;;;;;-145.50;100.00;65435.88;4986966;28;20081;-73
2021/05/22 10:18:23;;;;;;;4.38;2.25;;;;;;;-145.50;100.00;65435.88;4991079;28;20425;-73
2021/05/22 10:20:51;;;;;;;7.47;3.92;;;;;;;-145.50;100.00;65435.88;4992230;28;20441;-73
2021/05/22 10:23:18;;;;;;;;;;;;;;;-145.50;100.00;65435.88;4996007;28;20486;-73
2021/05/22 10:25:55;;;;;;;5.18;2.90;;;;;;;-145.50;100.00;65435.88;4995275;28;19932;-73
2021/05/22 10:28:23;;;;;;;3.88;2.90;;;;;;;-145.50;100.00;65435.88;4983949;28;20049;-73
2021/05/22 10:30:57;;;;;;;6.45;2.90;;;;;;;-145.50;100.00;65435.88;4988527;28;20223;-73
2021/05/22 10:33:24;;;;;;;5.80;3.17;;;;;;;-145.50;100.00;65435.88;4987772;28;20050;-74
2021/05/22 10:35:56;;;;;;;3.55;2.58;;;;;;;-145.50;100.00;65435.88;4998586;28;20383;-74
2021/05/22 10:38:41;;;;;;;4.78;3.00;;;;;;;-145.50;100.00;65435.88;4986695;28;20073;-73
2021/05/22 10:41:38;;;;;;;5.18;2.97;;;;;;;-145.50;100.00;65435.88;4992928;28;20066;-74
2021/05/22 10:44:39;;;;;;;4.35;2.72;;;;;;;-145.50;100.00;65435.88;4988261;28;20093;-73
2021/05/22 10:47:40;;;;;;;4.13;2.92;;;;;;;-145.50;100.00;65435.88;4994468;28;20435;-72
2021/05/22 10:50:42;;;;;;;4.32;2.60;;;;;;;-145.50;100.00;65435.88;4992289;28;20053;-74
2021/05/22 10:53:52;;;;;;;3.67;2.97;;;;;;;-145.50;100.00;65435.88;4994174;28;20061;-74
2021/05/22 10:56:58;;;;;;;2.90;2.60;;;;;;;-145.50;100.00;65435.88;4980695;28;20526;-74
2021/05/22 11:00:06;;;;;;;3.40;2.80;;;;;;;-145.50;100.00;65435.88;4987941;28;20050;-73
2021/05/22 11:03:06;;;;;;;5.10;2.60;;;;;;;-145.50;100.00;65435.88;4986658;28;20159;-76
2021/05/22 11:06:01;;;;;;;5.03;3.17;;;;;;;-145.50;100.00;65435.88;4992742;28;20490;-76
2021/05/22 11:08:49;;;;;;;4.68;3.25;;;;;;;-145.50;100.00;65435.88;4991403;28;20306;-74
2021/05/22 11:12:03;;;;;;;6.10;3.38;;;;;;;-145.50;100.00;65435.88;4993935;28;20050;-74
2021/05/22 11:14:56;;;;;;;5.22;3.75;;;;;;;-145.50;100.00;65435.88;4984442;28;20068;-74
2021/05/22 11:17:43;;;;;;;5.70;3.53;;;;;;;-145.50;100.00;65435.88;4989202;28;20046;-74
2021/05/22 11:20:30;;;;;;;8.23;3.80;;;;;;;-145.50;100.00;65435.88;4988902;28;20077;-73
2021/05/22 11:23:21;;;;;;;5.60;3.20;;;;;;;-145.50;100.00;65435.88;4998166;28;20060;-74
2021/05/22 11:26:09;;;;;;;7.38;4.00;;;;;;;-145.50;100.00;65435.88;4981998;28;20447;-74
2021/05/22 11:29:11;;;;;;;6.80;3.70;;;;;;;-145.50;100.00;65435.88;4992212;28;20433;-74
2021/05/22 11:31:58;;;;;;;7.13;3.90;;;;;;;-145.50;100.00;65435.88;4981458;28;20089;-75
2021/05/22 11:34:47;;;;;;;5.32;4.03;;;;;;;-145.50;100.00;65435.88;4993151;28;20502;-74
2021/05/22 11:37:37;;;;;;;5.05;3.80;;;;;;;-145.50;100.00;65435.88;4984574;28;20125;-75
2021/05/22 11:40:40;;;;;;;5.40;3.88;;;;;;;-145.50;100.00;65435.88;4988387;28;20346;-74
2021/05/22 11:43:33;;;;;;;6.55;3.72;;;;;;;-145.50;100.00;65435.88;4986757;28;20081;-75
2021/05/22 11:46:27;;;;;;;6.38;3.80;;;;;;;-145.50;100.00;65435.88;4989389;28;20079;-75
2021/05/22 11:49:14;;;;;;;3.47;2.47;;;;;;;-145.50;100.00;65435.88;4982231;28;20058;-74
2021/05/22 11:52:01;;;;;;;4.63;3.17;;;;;;;-145.50;100.00;65435.88;4992032;28;20371;-75
2021/05/22 11:54:53;;;;;;;4.82;3.00;;;;;;;-145.50;100.00;65435.88;4982625;28;20488;-75
2021/05/22 11:57:40;;;;;;;4.93;3.30;;;;;;;-145.50;100.00;65435.88;4999364;28;20188;-76
2021/05/22 12:00:28;;;;;;;5.35;3.40;;;;;;;-145.50;100.00;65435.88;4984756;28;20555;-75
2021/05/22 12:03:27;;;;;;;4.38;2.97;;;;;;;-145.50;100.00;65435.88;5014264;28;20081;-76
2021/05/22 12:06:23;;;;;;;3.95;2.85;;;;;;;-145.50;100.00;65435.88;4984095;28;20115;-75
2021/05/22 12:09:38;;;;;;;5.32;3.30;;;;;;;-145.50;100.00;65435.88;4991398;28;20050;-77
2021/05/22 12:12:30;;;;;;;5.40;3.63;;;;;;;-145.50;100.00;65435.88;4986651;28;20836;-76
2021/05/22 12:15:21;;;;;;;5.47;3.45;;;;;;;-145.50;100.00;65435.88;4992625;28;20517;-76
2021/05/22 12:18:08;;;;;;;6.35;3.80;;;;;;;-145.50;100.00;65435.88;4988208;28;20113;-75
2021/05/22 12:21:04;;;;;;;9.03;3.87;;;;;;;-145.50;100.00;65435.88;4990655;28;20096;-77
2021/05/22 12:24:06;;;;;;;8.13;3.45;;;;;;;-145.50;100.00;65435.88;4979682;28;20727;-76
2021/05/22 12:26:56;;;;;;;5.65;3.85;;;;;;;-145.50;100.00;65435.88;5000947;28;20141;-74
2021/05/22 12:29:48;;;;;;;6.82;3.83;;;;;;;-145.50;100.00;65435.88;4988204;28;20096;-75
2021/05/22 12:32:35;;;;;;;7.90;4.53;;;;;;;-145.50;100.00;65435.88;5004856;28;20061;-75
2021/05/22 12:35:27;;;;;;;7.35;4.10;;;;;;;-145.50;100.00;65435.88;4988554;28;20058;-75
2021/05/22 12:38:14;;;;;;;7.35;4.60;;;;;;;-145.50;100.00;65435.88;4993309;28;20089;-75
2021/05/22 12:41:05;;;;;;;7.60;4.97;;;;;;;-145.50;100.00;65435.88;4993265;28;20081;-75